sensor_id;sensor_type;location;lat;lon;timestamp;temperature;humidity
12470;DHT22;36499;46.484;13.832;2023-05-03T00:02:10;8.10;99.90
12470;DHT22;36499;46.484;13.832;2023-05-03T00:04:38;8.10;99.90
12470;DHT22;36499;46.484;13.832;2023-05-03T00:07:06;8.00;99.90
12470;DHT22;36499;46.484;13.832;2023-05-03T00:09:33;8.00;99.90
12470;DHT22;36499;46.484;13.832;2023-05-03T00:12:03;8.00;99.90
12470;DHT22;36499;46.484;13.832;2023-05-03T00:14:30;8.00;99.90
12470;DHT22;36499;46.484;13.832;2023-05-03T00:16:57;8.00;99.90
12470;DHT22;36499;46.484;13.832;2023-05-03T00:19:24;8.00;99.90
12470;DHT22;36499;46.484;13.832;2023-05-03T00:21:54;7.90;99.90
12470;DHT22;36499;46.484;13.832;2023-05-03T00:24:21;7.90;99.90
12470;DHT22;36499;46.484;13.832;2023-05-03T00:26:48;7.90;99.90
12470;DHT22;36499;46.484;13.832;2023-05-03T00:29:16;7.90;99.90
12470;DHT22;36499;46.484;13.832;2023-05-03T00:31:45;7.90;99.90
12470;DHT22;36499;46.484;13.832;2023-05-03T00:34:12;7.90;99.90
12470;DHT22;36499;46.484;13.832;2023-05-03T00:36:40;7.90;99.90
12470;DHT22;36499;46.484;13.832;2023-05-03T00:39:07;7.90;99.90
12470;DHT22;36499;46.484;13.832;2023-05-03T00:41:35;7.90;99.90
12470;DHT22;36499;46.484;13.832;2023-05-03T00:44:02;7.90;99.90
12470;DHT22;36499;46.484;13.832;2023-05-03T00:46:30;8.00;99.90
12470;DHT22;36499;46.484;13.832;2023-05-03T00:48:57;7.90;99.90
12470;DHT22;36499;46.484;13.832;2023-05-03T00:51:26;7.90;99.90
12470;DHT22;36499;46.484;13.832;2023-05-03T00:53:53;7.90;99.90
12470;DHT22;36499;46.484;13.832;2023-05-03T00:56:22;7.90;99.90
12470;DHT22;36499;46.484;13.832;2023-05-03T00:58:50;7.90;99.90
12470;DHT22;36499;46.484;13.832;2023-05-03T01:01:18;7.80;99.90
12470;DHT22;36499;46.484;13.832;2023-05-03T01:03:46;7.80;99.90
12470;DHT22;36499;46.484;13.832;2023-05-03T01:06:21;7.80;99.90
12470;DHT22;36499;46.484;13.832;2023-05-03T01:08:58;7.80;99.90
12470;DHT22;36499;46.484;13.832;2023-05-03T01:11:36;7.80;99.90
12470;DHT22;36499;46.484;13.832;2023-05-03T01:14:14;7.80;99.90
12470;DHT22;36499;46.484;13.832;2023-05-03T01:16:51;7.80;99.90
12470;DHT22;36499;46.484;13.832;2023-05-03T01:19:28;7.90;99.90
12470;DHT22;36499;46.484;13.832;2023-05-03T01:22:06;7.90;99.90
12470;DHT22;36499;46.484;13.832;2023-05-03T01:24:45;7.90;99.90
12470;DHT22;36499;46.484;13.832;2023-05-03T01:27:17;7.80;99.90
12470;DHT22;36499;46.484;13.832;2023-05-03T01:29:44;7.80;99.90
12470;DHT22;36499;46.484;13.832;2023-05-03T01:32:17;7.80;99.90
12470;DHT22;36499;46.484;13.832;2023-05-03T01:34:56;7.80;99.90
12470;DHT22;36499;46.484;13.832;2023-05-03T01:37:27;7.80;99.90
12470;DHT22;36499;46.484;13.832;2023-05-03T01:40:00;7.80;99.90
12470;DHT22;36499;46.484;13.832;2023-05-03T01:42:31;7.80;99.90
12470;DHT22;36499;46.484;13.832;2023-05-03T01:45:01;7.80;99.90
12470;DHT22;36499;46.484;13.832;2023-05-03T01:47:30;7.80;99.90
12470;DHT22;36499;46.484;13.832;2023-05-03T01:49:57;7.80;99.90
12470;DHT22;36499;46.484;13.832;2023-05-03T01:52:24;7.70;99.90
12470;DHT22;36499;46.484;13.832;2023-05-03T01:54:51;7.70;99.90
12470;DHT22;36499;46.484;13.832;2023-05-03T01:57:18;7.80;99.90
12470;DHT22;36499;46.484;13.832;2023-05-03T01:59:47;7.70;99.90
12470;DHT22;36499;46.484;13.832;2023-05-03T02:02:14;7.70;99.90
12470;DHT22;36499;46.484;13.832;2023-05-03T02:04:41;7.80;99.90
12470;DHT22;36499;46.484;13.832;2023-05-03T02:07:08;7.80;99.90
12470;DHT22;36499;46.484;13.832;2023-05-03T02:09:35;7.80;99.90
12470;DHT22;36499;46.484;13.832;2023-05-03T02:12:02;7.80;99.90
12470;DHT22;36499;46.484;13.832;2023-05-03T02:14:29;7.80;99.90
12470;DHT22;36499;46.484;13.832;2023-05-03T02:16:59;7.90;99.90
12470;DHT22;36499;46.484;13.832;2023-05-03T02:19:27;7.80;99.90
12470;DHT22;36499;46.484;13.832;2023-05-03T02:21:55;7.70;99.90
12470;DHT22;36499;46.484;13.832;2023-05-03T02:24:22;7.70;99.90
12470;DHT22;36499;46.484;13.832;2023-05-03T02:26:49;7.70;99.90
12470;DHT22;36499;46.484;13.832;2023-05-03T02:29:17;7.70;99.90
12470;DHT22;36499;46.484;13.832;2023-05-03T02:31:44;7.70;99.90
12470;DHT22;36499;46.484;13.832;2023-05-03T02:34:12;7.70;99.90
12470;DHT22;36499;46.484;13.832;2023-05-03T02:36:39;7.70;99.90
12470;DHT22;36499;46.484;13.832;2023-05-03T02:39:06;7.70;99.90
12470;DHT22;36499;46.484;13.832;2023-05-03T02:41:35;7.60;99.90
12470;DHT22;36499;46.484;13.832;2023-05-03T02:44:02;7.60;99.90
12470;DHT22;36499;46.484;13.832;2023-05-03T02:46:29;7.60;99.90
12470;DHT22;36499;46.484;13.832;2023-05-03T02:48:56;7.60;99.90
12470;DHT22;36499;46.484;13.832;2023-05-03T02:51:25;7.60;99.90
12470;DHT22;36499;46.484;13.832;2023-05-03T02:53:52;7.60;99.90
12470;DHT22;36499;46.484;13.832;2023-05-03T02:56:19;7.60;99.90
12470;DHT22;36499;46.484;13.832;2023-05-03T02:58:46;7.60;99.90
12470;DHT22;36499;46.484;13.832;2023-05-03T03:01:13;7.60;99.90
12470;DHT22;36499;46.484;13.832;2023-05-03T03:03:40;7.50;99.90
12470;DHT22;36499;46.484;13.832;2023-05-03T03:06:07;7.50;99.90
12470;DHT22;36499;46.484;13.832;2023-05-03T03:08:36;7.50;99.90
12470;DHT22;36499;46.484;13.832;2023-05-03T03:11:03;7.50;99.90
12470;DHT22;36499;46.484;13.832;2023-05-03T03:13:31;7.50;99.90
12470;DHT22;36499;46.484;13.832;2023-05-03T03:15:58;7.50;99.90
12470;DHT22;36499;46.484;13.832;2023-05-03T03:18:25;7.50;99.90
12470;DHT22;36499;46.484;13.832;2023-05-03T03:20:52;7.50;99.90
12470;DHT22;36499;46.484;13.832;2023-05-03T03:23:19;7.40;99.90
12470;DHT22;36499;46.484;13.832;2023-05-03T03:25:48;7.40;99.90
12470;DHT22;36499;46.484;13.832;2023-05-03T03:28:15;7.40;99.90
12470;DHT22;36499;46.484;13.832;2023-05-03T03:30:43;7.40;99.90
12470;DHT22;36499;46.484;13.832;2023-05-03T03:33:10;7.40;99.90
12470;DHT22;36499;46.484;13.832;2023-05-03T03:35:38;7.50;99.90
12470;DHT22;36499;46.484;13.832;2023-05-03T03:38:05;7.50;99.90
12470;DHT22;36499;46.484;13.832;2023-05-03T03:40:32;7.50;99.90
12470;DHT22;36499;46.484;13.832;2023-05-03T03:43:00;7.50;99.90
12470;DHT22;36499;46.484;13.832;2023-05-03T03:45:28;7.50;99.90
12470;DHT22;36499;46.484;13.832;2023-05-03T03:47:55;7.50;99.90
12470;DHT22;36499;46.484;13.832;2023-05-03T03:50:22;7.50;99.90
12470;DHT22;36499;46.484;13.832;2023-05-03T03:52:50;7.50;99.90
12470;DHT22;36499;46.484;13.832;2023-05-03T03:55:17;7.50;99.90
12470;DHT22;36499;46.484;13.832;2023-05-03T03:57:44;7.50;99.90
12470;DHT22;36499;46.484;13.832;2023-05-03T04:00:13;7.50;99.90
12470;DHT22;36499;46.484;13.832;2023-05-03T04:02:41;7.50;99.90
12470;DHT22;36499;46.484;13.832;2023-05-03T04:05:08;7.50;99.90
12470;DHT22;36499;46.484;13.832;2023-05-03T04:07:35;7.50;99.90
12470;DHT22;36499;46.484;13.832;2023-05-03T04:10:03;7.50;99.90
12470;DHT22;36499;46.484;13.832;2023-05-03T04:12:31;7.50;99.90
12470;DHT22;36499;46.484;13.832;2023-05-03T04:14:58;7.60;99.90
12470;DHT22;36499;46.484;13.832;2023-05-03T04:17:26;7.60;99.90
12470;DHT22;36499;46.484;13.832;2023-05-03T04:19:54;7.60;99.90
12470;DHT22;36499;46.484;13.832;2023-05-03T04:22:21;7.60;99.90
12470;DHT22;36499;46.484;13.832;2023-05-03T04:24:48;7.60;99.90
12470;DHT22;36499;46.484;13.832;2023-05-03T04:27:15;7.60;99.90
12470;DHT22;36499;46.484;13.832;2023-05-03T04:29:43;7.50;99.90
12470;DHT22;36499;46.484;13.832;2023-05-03T04:32:10;7.60;99.90
12470;DHT22;36499;46.484;13.832;2023-05-03T04:34:40;7.60;99.90
12470;DHT22;36499;46.484;13.832;2023-05-03T04:37:07;7.70;99.90
12470;DHT22;36499;46.484;13.832;2023-05-03T04:39:35;7.70;99.90
12470;DHT22;36499;46.484;13.832;2023-05-03T04:42:02;7.70;99.90
12470;DHT22;36499;46.484;13.832;2023-05-03T04:44:30;7.70;99.90
12470;DHT22;36499;46.484;13.832;2023-05-03T04:46:57;7.70;99.90
12470;DHT22;36499;46.484;13.832;2023-05-03T04:49:25;7.70;99.90
12470;DHT22;36499;46.484;13.832;2023-05-03T04:51:53;7.70;99.90
12470;DHT22;36499;46.484;13.832;2023-05-03T04:54:20;7.70;99.90
12470;DHT22;36499;46.484;13.832;2023-05-03T04:56:47;7.70;99.90
12470;DHT22;36499;46.484;13.832;2023-05-03T04:59:14;7.70;99.90
12470;DHT22;36499;46.484;13.832;2023-05-03T05:01:41;7.70;99.90
12470;DHT22;36499;46.484;13.832;2023-05-03T05:04:08;7.70;99.90
12470;DHT22;36499;46.484;13.832;2023-05-03T05:06:35;7.70;99.90
12470;DHT22;36499;46.484;13.832;2023-05-03T05:09:05;7.70;99.90
12470;DHT22;36499;46.484;13.832;2023-05-03T05:11:33;7.70;99.90
12470;DHT22;36499;46.484;13.832;2023-05-03T05:14:00;7.70;99.90
12470;DHT22;36499;46.484;13.832;2023-05-03T05:16:27;7.70;99.90
12470;DHT22;36499;46.484;13.832;2023-05-03T05:18:54;7.70;99.90
12470;DHT22;36499;46.484;13.832;2023-05-03T05:21:21;7.70;99.90
12470;DHT22;36499;46.484;13.832;2023-05-03T05:23:48;7.70;99.90
12470;DHT22;36499;46.484;13.832;2023-05-03T05:26:16;7.70;99.90
12470;DHT22;36499;46.484;13.832;2023-05-03T05:28:44;7.70;99.90
12470;DHT22;36499;46.484;13.832;2023-05-03T05:31:11;7.70;99.90
12470;DHT22;36499;46.484;13.832;2023-05-03T05:33:38;7.70;99.90
12470;DHT22;36499;46.484;13.832;2023-05-03T05:36:05;7.70;99.90
12470;DHT22;36499;46.484;13.832;2023-05-03T05:38:32;7.80;99.90
12470;DHT22;36499;46.484;13.832;2023-05-03T05:40:59;7.80;99.90
12470;DHT22;36499;46.484;13.832;2023-05-03T05:43:28;7.80;99.90
12470;DHT22;36499;46.484;13.832;2023-05-03T05:45:55;7.80;99.90
12470;DHT22;36499;46.484;13.832;2023-05-03T05:48:22;7.80;99.90
12470;DHT22;36499;46.484;13.832;2023-05-03T05:50:49;7.70;99.90
12470;DHT22;36499;46.484;13.832;2023-05-03T05:53:16;7.70;99.90
12470;DHT22;36499;46.484;13.832;2023-05-03T05:55:43;7.70;99.90
12470;DHT22;36499;46.484;13.832;2023-05-03T05:58:10;7.70;99.90
12470;DHT22;36499;46.484;13.832;2023-05-03T06:00:39;7.70;99.90
12470;DHT22;36499;46.484;13.832;2023-05-03T06:03:06;7.70;99.90
12470;DHT22;36499;46.484;13.832;2023-05-03T06:05:34;7.70;99.90
12470;DHT22;36499;46.484;13.832;2023-05-03T06:08:01;7.70;99.90
12470;DHT22;36499;46.484;13.832;2023-05-03T06:10:28;7.70;99.90
12470;DHT22;36499;46.484;13.832;2023-05-03T06:12:55;7.80;99.90
12470;DHT22;36499;46.484;13.832;2023-05-03T06:15:22;7.80;99.90
12470;DHT22;36499;46.484;13.832;2023-05-03T06:17:52;7.80;99.90
12470;DHT22;36499;46.484;13.832;2023-05-03T06:20:19;7.90;99.90
12470;DHT22;36499;46.484;13.832;2023-05-03T06:22:48;7.90;99.90
12470;DHT22;36499;46.484;13.832;2023-05-03T06:25:16;7.90;99.90
12470;DHT22;36499;46.484;13.832;2023-05-03T06:27:43;8.00;99.90
12470;DHT22;36499;46.484;13.832;2023-05-03T06:30:10;8.00;99.90
12470;DHT22;36499;46.484;13.832;2023-05-03T06:32:38;8.00;99.90
12470;DHT22;36499;46.484;13.832;2023-05-03T06:35:08;8.00;99.90
12470;DHT22;36499;46.484;13.832;2023-05-03T06:37:35;7.90;99.90
12470;DHT22;36499;46.484;13.832;2023-05-03T06:40:03;7.90;99.90
12470;DHT22;36499;46.484;13.832;2023-05-03T06:42:31;7.90;99.90
12470;DHT22;36499;46.484;13.832;2023-05-03T06:44:58;8.00;99.90
12470;DHT22;36499;46.484;13.832;2023-05-03T06:47:25;8.00;99.90
12470;DHT22;36499;46.484;13.832;2023-05-03T06:49:52;8.00;99.90
12470;DHT22;36499;46.484;13.832;2023-05-03T06:52:21;8.00;99.90
12470;DHT22;36499;46.484;13.832;2023-05-03T06:54:48;8.00;99.90
12470;DHT22;36499;46.484;13.832;2023-05-03T06:57:15;8.00;99.90
12470;DHT22;36499;46.484;13.832;2023-05-03T06:59:42;8.00;99.90
12470;DHT22;36499;46.484;13.832;2023-05-03T07:02:09;8.00;99.90
12470;DHT22;36499;46.484;13.832;2023-05-03T07:04:36;8.00;99.90
12470;DHT22;36499;46.484;13.832;2023-05-03T07:07:04;8.00;99.90
12470;DHT22;36499;46.484;13.832;2023-05-03T07:09:32;8.10;99.90
12470;DHT22;36499;46.484;13.832;2023-05-03T07:11:59;8.10;99.90
12470;DHT22;36499;46.484;13.832;2023-05-03T07:14:28;8.10;99.90
12470;DHT22;36499;46.484;13.832;2023-05-03T07:16:56;8.10;99.90
12470;DHT22;36499;46.484;13.832;2023-05-03T07:19:23;8.20;99.90
12470;DHT22;36499;46.484;13.832;2023-05-03T07:21:50;8.20;99.90
12470;DHT22;36499;46.484;13.832;2023-05-03T07:24:17;8.20;99.90
12470;DHT22;36499;46.484;13.832;2023-05-03T07:26:46;8.20;99.90
12470;DHT22;36499;46.484;13.832;2023-05-03T07:29:13;8.20;99.90
12470;DHT22;36499;46.484;13.832;2023-05-03T07:31:40;8.20;99.90
12470;DHT22;36499;46.484;13.832;2023-05-03T07:34:09;8.20;99.90
12470;DHT22;36499;46.484;13.832;2023-05-03T07:36:36;8.20;99.90
12470;DHT22;36499;46.484;13.832;2023-05-03T07:39:04;8.20;99.90
12470;DHT22;36499;46.484;13.832;2023-05-03T07:41:32;8.20;99.90
12470;DHT22;36499;46.484;13.832;2023-05-03T07:44:00;8.10;99.90
12470;DHT22;36499;46.484;13.832;2023-05-03T07:46:27;8.10;99.90
12470;DHT22;36499;46.484;13.832;2023-05-03T07:48:59;8.20;99.90
12470;DHT22;36499;46.484;13.832;2023-05-03T07:51:26;8.20;99.90
12470;DHT22;36499;46.484;13.832;2023-05-03T07:53:54;8.20;99.90
12470;DHT22;36499;46.484;13.832;2023-05-03T07:56:22;8.20;99.90
12470;DHT22;36499;46.484;13.832;2023-05-03T07:58:49;8.20;99.90
12470;DHT22;36499;46.484;13.832;2023-05-03T08:01:18;8.20;99.90
12470;DHT22;36499;46.484;13.832;2023-05-03T08:03:45;8.20;99.90
12470;DHT22;36499;46.484;13.832;2023-05-03T08:06:14;8.20;99.90
12470;DHT22;36499;46.484;13.832;2023-05-03T08:08:42;8.10;99.90
12470;DHT22;36499;46.484;13.832;2023-05-03T08:11:09;8.20;99.90
12470;DHT22;36499;46.484;13.832;2023-05-03T08:13:37;8.20;99.90
12470;DHT22;36499;46.484;13.832;2023-05-03T08:16:04;8.30;99.90
12470;DHT22;36499;46.484;13.832;2023-05-03T08:18:33;8.30;99.90
12470;DHT22;36499;46.484;13.832;2023-05-03T08:21:00;8.30;99.90
12470;DHT22;36499;46.484;13.832;2023-05-03T08:23:27;8.30;99.90
12470;DHT22;36499;46.484;13.832;2023-05-03T08:25:54;8.30;99.90
12470;DHT22;36499;46.484;13.832;2023-05-03T08:28:21;8.30;99.90
12470;DHT22;36499;46.484;13.832;2023-05-03T08:31:00;8.30;99.90
12470;DHT22;36499;46.484;13.832;2023-05-03T08:33:29;8.30;99.90
12470;DHT22;36499;46.484;13.832;2023-05-03T08:35:58;8.40;99.90
12470;DHT22;36499;46.484;13.832;2023-05-03T08:38:25;8.40;99.90
12470;DHT22;36499;46.484;13.832;2023-05-03T08:40:54;8.50;99.90
12470;DHT22;36499;46.484;13.832;2023-05-03T08:43:27;8.50;99.90
12470;DHT22;36499;46.484;13.832;2023-05-03T08:45:55;8.60;99.90
12470;DHT22;36499;46.484;13.832;2023-05-03T08:48:22;8.60;99.90
12470;DHT22;36499;46.484;13.832;2023-05-03T08:50:50;8.70;99.90
12470;DHT22;36499;46.484;13.832;2023-05-03T08:53:19;8.70;99.90
12470;DHT22;36499;46.484;13.832;2023-05-03T08:55:46;8.70;99.90
12470;DHT22;36499;46.484;13.832;2023-05-03T08:58:13;8.70;99.90
12470;DHT22;36499;46.484;13.832;2023-05-03T09:00:40;8.80;99.90
12470;DHT22;36499;46.484;13.832;2023-05-03T09:03:09;8.80;99.90
12470;DHT22;36499;46.484;13.832;2023-05-03T09:05:36;8.80;99.90
12470;DHT22;36499;46.484;13.832;2023-05-03T09:08:07;8.80;99.90
12470;DHT22;36499;46.484;13.832;2023-05-03T09:10:40;8.90;99.90
12470;DHT22;36499;46.484;13.832;2023-05-03T09:13:09;8.90;99.90
12470;DHT22;36499;46.484;13.832;2023-05-03T09:15:36;9.10;99.90
12470;DHT22;36499;46.484;13.832;2023-05-03T09:18:08;9.10;99.90
12470;DHT22;36499;46.484;13.832;2023-05-03T09:20:38;9.10;99.90
12470;DHT22;36499;46.484;13.832;2023-05-03T09:23:06;9.10;99.90
12470;DHT22;36499;46.484;13.832;2023-05-03T09:25:46;9.10;99.90
12470;DHT22;36499;46.484;13.832;2023-05-03T09:28:15;9.10;99.90
12470;DHT22;36499;46.484;13.832;2023-05-03T09:30:45;9.10;99.90
12470;DHT22;36499;46.484;13.832;2023-05-03T09:33:13;9.10;99.90
12470;DHT22;36499;46.484;13.832;2023-05-03T09:35:55;9.00;99.90
12470;DHT22;36499;46.484;13.832;2023-05-03T09:38:27;9.00;99.90
12470;DHT22;36499;46.484;13.832;2023-05-03T09:40:57;9.10;99.90
12470;DHT22;36499;46.484;13.832;2023-05-03T09:43:27;9.10;99.90
12470;DHT22;36499;46.484;13.832;2023-05-03T09:46:07;9.10;99.90
12470;DHT22;36499;46.484;13.832;2023-05-03T09:48:35;9.20;99.90
12470;DHT22;36499;46.484;13.832;2023-05-03T09:51:03;9.20;99.90
12470;DHT22;36499;46.484;13.832;2023-05-03T09:53:31;9.30;99.90
12470;DHT22;36499;46.484;13.832;2023-05-03T09:56:02;9.30;99.90
12470;DHT22;36499;46.484;13.832;2023-05-03T09:58:33;9.40;99.90
12470;DHT22;36499;46.484;13.832;2023-05-03T10:01:01;9.40;99.90
12470;DHT22;36499;46.484;13.832;2023-05-03T10:03:33;9.50;99.90
12470;DHT22;36499;46.484;13.832;2023-05-03T10:06:15;9.50;99.90
12470;DHT22;36499;46.484;13.832;2023-05-03T10:08:50;9.50;99.90
12470;DHT22;36499;46.484;13.832;2023-05-03T10:11:23;9.50;99.90
12470;DHT22;36499;46.484;13.832;2023-05-03T10:13:52;9.50;99.90
12470;DHT22;36499;46.484;13.832;2023-05-03T10:16:23;9.40;99.90
12470;DHT22;36499;46.484;13.832;2023-05-03T10:18:59;9.40;99.90
12470;DHT22;36499;46.484;13.832;2023-05-03T10:21:41;9.40;99.90
12470;DHT22;36499;46.484;13.832;2023-05-03T10:24:17;9.40;99.90
12470;DHT22;36499;46.484;13.832;2023-05-03T10:26:46;9.40;99.90
12470;DHT22;36499;46.484;13.832;2023-05-03T10:29:44;9.50;99.90
12470;DHT22;36499;46.484;13.832;2023-05-03T10:32:35;9.60;99.90
12470;DHT22;36499;46.484;13.832;2023-05-03T10:35:07;9.60;99.90
12470;DHT22;36499;46.484;13.832;2023-05-03T10:37:36;9.60;99.90
12470;DHT22;36499;46.484;13.832;2023-05-03T10:40:08;9.70;99.90
12470;DHT22;36499;46.484;13.832;2023-05-03T10:42:38;9.70;99.90
12470;DHT22;36499;46.484;13.832;2023-05-03T10:45:19;9.80;99.90
12470;DHT22;36499;46.484;13.832;2023-05-03T10:48:16;9.80;99.90
12470;DHT22;36499;46.484;13.832;2023-05-03T10:50:47;9.80;99.90
12470;DHT22;36499;46.484;13.832;2023-05-03T10:53:35;9.80;99.90
12470;DHT22;36499;46.484;13.832;2023-05-03T10:56:05;9.80;99.90
12470;DHT22;36499;46.484;13.832;2023-05-03T10:58:37;9.90;99.90
12470;DHT22;36499;46.484;13.832;2023-05-03T11:01:08;9.90;99.90
12470;DHT22;36499;46.484;13.832;2023-05-03T11:03:47;9.90;99.90
12470;DHT22;36499;46.484;13.832;2023-05-03T11:06:29;9.80;99.90
12470;DHT22;36499;46.484;13.832;2023-05-03T11:08:58;9.80;99.90
12470;DHT22;36499;46.484;13.832;2023-05-03T11:11:26;9.70;99.90
12470;DHT22;36499;46.484;13.832;2023-05-03T11:13:54;9.70;99.90
12470;DHT22;36499;46.484;13.832;2023-05-03T11:16:22;9.70;99.90
12470;DHT22;36499;46.484;13.832;2023-05-03T11:18:50;9.60;99.90
12470;DHT22;36499;46.484;13.832;2023-05-03T11:21:18;9.60;99.90
12470;DHT22;36499;46.484;13.832;2023-05-03T11:23:46;9.60;99.90
12470;DHT22;36499;46.484;13.832;2023-05-03T11:26:13;9.60;99.90
12470;DHT22;36499;46.484;13.832;2023-05-03T11:28:41;9.50;99.90
12470;DHT22;36499;46.484;13.832;2023-05-03T11:31:11;9.50;99.90
12470;DHT22;36499;46.484;13.832;2023-05-03T11:33:40;9.40;99.90
12470;DHT22;36499;46.484;13.832;2023-05-03T11:36:07;9.40;99.90
12470;DHT22;36499;46.484;13.832;2023-05-03T11:38:36;9.40;99.90
12470;DHT22;36499;46.484;13.832;2023-05-03T11:41:11;9.40;99.90
12470;DHT22;36499;46.484;13.832;2023-05-03T11:43:40;9.30;99.90
12470;DHT22;36499;46.484;13.832;2023-05-03T11:46:09;9.30;99.90
12470;DHT22;36499;46.484;13.832;2023-05-03T11:48:38;9.30;99.90
12470;DHT22;36499;46.484;13.832;2023-05-03T11:51:07;9.30;99.90
12470;DHT22;36499;46.484;13.832;2023-05-03T11:53:36;9.30;99.90
12470;DHT22;36499;46.484;13.832;2023-05-03T11:56:07;9.20;99.90
12470;DHT22;36499;46.484;13.832;2023-05-03T11:58:49;9.20;99.90
12470;DHT22;36499;46.484;13.832;2023-05-03T12:01:21;9.20;99.90
12470;DHT22;36499;46.484;13.832;2023-05-03T12:03:52;9.20;99.90
12470;DHT22;36499;46.484;13.832;2023-05-03T12:06:21;9.10;99.90
12470;DHT22;36499;46.484;13.832;2023-05-03T12:08:49;9.10;99.90
12470;DHT22;36499;46.484;13.832;2023-05-03T12:11:16;9.10;99.90
12470;DHT22;36499;46.484;13.832;2023-05-03T12:13:43;9.10;99.90
12470;DHT22;36499;46.484;13.832;2023-05-03T12:16:11;9.00;99.90
12470;DHT22;36499;46.484;13.832;2023-05-03T12:18:49;9.00;99.90
12470;DHT22;36499;46.484;13.832;2023-05-03T12:21:19;9.00;99.90
12470;DHT22;36499;46.484;13.832;2023-05-03T12:23:46;9.00;99.90
12470;DHT22;36499;46.484;13.832;2023-05-03T12:26:16;8.90;99.90
12470;DHT22;36499;46.484;13.832;2023-05-03T12:28:44;8.90;99.90
12470;DHT22;36499;46.484;13.832;2023-05-03T12:31:12;8.90;99.90
12470;DHT22;36499;46.484;13.832;2023-05-03T12:33:40;8.90;99.90
12470;DHT22;36499;46.484;13.832;2023-05-03T12:36:08;8.90;99.90
12470;DHT22;36499;46.484;13.832;2023-05-03T12:38:36;8.80;99.90
12470;DHT22;36499;46.484;13.832;2023-05-03T12:41:03;8.80;99.90
12470;DHT22;36499;46.484;13.832;2023-05-03T12:43:30;8.80;99.90
12470;DHT22;36499;46.484;13.832;2023-05-03T12:45:58;8.80;99.90
12470;DHT22;36499;46.484;13.832;2023-05-03T12:48:27;8.90;99.90
12470;DHT22;36499;46.484;13.832;2023-05-03T12:50:55;8.90;99.90
12470;DHT22;36499;46.484;13.832;2023-05-03T12:53:24;8.90;99.90
12470;DHT22;36499;46.484;13.832;2023-05-03T12:55:51;8.90;99.90
12470;DHT22;36499;46.484;13.832;2023-05-03T12:58:19;8.90;99.90
12470;DHT22;36499;46.484;13.832;2023-05-03T13:00:46;8.90;99.90
12470;DHT22;36499;46.484;13.832;2023-05-03T13:03:15;8.90;99.90
12470;DHT22;36499;46.484;13.832;2023-05-03T13:05:42;9.00;99.90
12470;DHT22;36499;46.484;13.832;2023-05-03T13:08:09;9.00;99.90
12470;DHT22;36499;46.484;13.832;2023-05-03T13:10:38;9.00;99.90
12470;DHT22;36499;46.484;13.832;2023-05-03T13:13:05;9.00;99.90
12470;DHT22;36499;46.484;13.832;2023-05-03T13:15:34;9.00;99.90
12470;DHT22;36499;46.484;13.832;2023-05-03T13:18:02;9.00;99.90
12470;DHT22;36499;46.484;13.832;2023-05-03T13:20:31;9.00;99.90
12470;DHT22;36499;46.484;13.832;2023-05-03T13:22:58;9.00;99.90
12470;DHT22;36499;46.484;13.832;2023-05-03T13:25:25;9.00;99.90
12470;DHT22;36499;46.484;13.832;2023-05-03T13:27:54;9.10;99.90
12470;DHT22;36499;46.484;13.832;2023-05-03T13:30:22;9.10;99.90
12470;DHT22;36499;46.484;13.832;2023-05-03T13:32:49;9.00;99.90
12470;DHT22;36499;46.484;13.832;2023-05-03T13:35:17;9.00;99.90
12470;DHT22;36499;46.484;13.832;2023-05-03T13:37:44;9.00;99.90
12470;DHT22;36499;46.484;13.832;2023-05-03T13:40:12;9.00;99.90
12470;DHT22;36499;46.484;13.832;2023-05-03T13:42:39;9.00;99.90
12470;DHT22;36499;46.484;13.832;2023-05-03T13:45:09;8.90;99.90
12470;DHT22;36499;46.484;13.832;2023-05-03T13:47:38;8.90;99.90
12470;DHT22;36499;46.484;13.832;2023-05-03T13:50:06;8.80;99.90
12470;DHT22;36499;46.484;13.832;2023-05-03T13:52:33;8.90;99.90
12470;DHT22;36499;46.484;13.832;2023-05-03T13:55:00;8.90;99.90
12470;DHT22;36499;46.484;13.832;2023-05-03T13:57:28;8.90;99.90
12470;DHT22;36499;46.484;13.832;2023-05-03T13:59:55;8.90;99.90
12470;DHT22;36499;46.484;13.832;2023-05-03T14:02:24;9.00;99.90
12470;DHT22;36499;46.484;13.832;2023-05-03T14:04:52;9.00;99.90
12470;DHT22;36499;46.484;13.832;2023-05-03T14:07:19;9.00;99.90
12470;DHT22;36499;46.484;13.832;2023-05-03T14:09:46;9.10;99.90
12470;DHT22;36499;46.484;13.832;2023-05-03T14:12:13;9.10;99.90
12470;DHT22;36499;46.484;13.832;2023-05-03T14:14:40;9.10;99.90
12470;DHT22;36499;46.484;13.832;2023-05-03T14:17:07;9.00;99.90
12470;DHT22;36499;46.484;13.832;2023-05-03T14:19:36;9.00;99.90
12470;DHT22;36499;46.484;13.832;2023-05-03T14:22:03;8.90;99.90
12470;DHT22;36499;46.484;13.832;2023-05-03T14:24:31;8.90;99.90
12470;DHT22;36499;46.484;13.832;2023-05-03T14:26:58;8.80;99.90
12470;DHT22;36499;46.484;13.832;2023-05-03T14:29:25;8.80;99.90
12470;DHT22;36499;46.484;13.832;2023-05-03T14:31:53;8.80;99.90
12470;DHT22;36499;46.484;13.832;2023-05-03T14:34:21;8.80;99.90
12470;DHT22;36499;46.484;13.832;2023-05-03T14:36:49;8.80;99.90
12470;DHT22;36499;46.484;13.832;2023-05-03T14:39:17;8.80;99.90
12470;DHT22;36499;46.484;13.832;2023-05-03T14:41:44;8.80;99.90
12470;DHT22;36499;46.484;13.832;2023-05-03T14:44:12;8.80;99.90
12470;DHT22;36499;46.484;13.832;2023-05-03T14:46:39;8.80;99.90
12470;DHT22;36499;46.484;13.832;2023-05-03T14:49:06;8.80;99.90
12470;DHT22;36499;46.484;13.832;2023-05-03T14:51:33;8.80;99.90
12470;DHT22;36499;46.484;13.832;2023-05-03T14:54:02;8.90;99.90
12470;DHT22;36499;46.484;13.832;2023-05-03T14:56:29;8.90;99.90
12470;DHT22;36499;46.484;13.832;2023-05-03T14:58:57;9.00;99.90
12470;DHT22;36499;46.484;13.832;2023-05-03T15:01:25;9.00;99.90
12470;DHT22;36499;46.484;13.832;2023-05-03T15:03:52;9.00;99.90
12470;DHT22;36499;46.484;13.832;2023-05-03T15:06:22;9.00;99.90
12470;DHT22;36499;46.484;13.832;2023-05-03T15:08:50;8.90;99.90
12470;DHT22;36499;46.484;13.832;2023-05-03T15:11:19;8.90;99.90
12470;DHT22;36499;46.484;13.832;2023-05-03T15:13:47;8.90;99.90
12470;DHT22;36499;46.484;13.832;2023-05-03T15:16:14;8.90;99.90
12470;DHT22;36499;46.484;13.832;2023-05-03T15:18:42;8.90;99.90
12470;DHT22;36499;46.484;13.832;2023-05-03T15:21:12;9.00;99.90
12470;DHT22;36499;46.484;13.832;2023-05-03T15:23:41;8.90;99.90
12470;DHT22;36499;46.484;13.832;2023-05-03T15:26:08;8.90;99.90
12470;DHT22;36499;46.484;13.832;2023-05-03T15:28:36;8.90;99.90
12470;DHT22;36499;46.484;13.832;2023-05-03T15:31:03;9.00;99.90
12470;DHT22;36499;46.484;13.832;2023-05-03T15:33:38;8.90;99.90
12470;DHT22;36499;46.484;13.832;2023-05-03T15:36:08;9.00;99.90
12470;DHT22;36499;46.484;13.832;2023-05-03T15:38:37;9.00;99.90
12470;DHT22;36499;46.484;13.832;2023-05-03T15:41:05;9.00;99.90